Time;durP1;ratioP1;P1;durP2;ratioP2;P2;SDS_P1;SDS_P2;PMS_P1;PMS_P2;Temp;Humidity;BMP_temperature;BMP_pressure;BME280_temperature;BME280_humidity;BME280_pressure;Samples;Min_cycle;Max_cycle;Signal;HPM_P1;HPM_P2
2023/04/30 00:00:06;;;;;;;22.13;12.25;;;;;;;10.72;100.00;100525.69;5056434;28;20497;-75
2023/04/30 00:02:32;;;;;;;16.67;10.80;;;;;;;10.77;100.00;100531.53;5055654;28;20025;-75
2023/04/30 00:04:59;;;;;;;14.52;10.70;;;;;;;10.73;100.00;100533.00;5055816;28;20040;-74
2023/04/30 00:07:25;;;;;;;16.90;10.90;;;;;;;10.68;100.00;100533.66;5053821;28;20561;-74
2023/04/30 00:09:51;;;;;;;21.77;11.38;;;;;;;10.70;100.00;100528.22;5056436;28;20061;-75
2023/04/30 00:12:18;;;;;;;17.45;10.90;;;;;;;10.76;100.00;100529.94;5054084;28;20025;-76
2023/04/30 00:14:43;;;;;;;15.25;11.15;;;;;;;10.69;100.00;100533.16;5054086;28;20033;-73
2023/04/30 00:17:11;;;;;;;16.60;9.73;;;;;;;10.60;100.00;100529.56;5054018;28;20056;-75
2023/04/30 00:19:37;;;;;;;14.32;10.82;;;;;;;10.57;100.00;100536.28;5052328;28;20025;-75
2023/04/30 00:22:05;;;;;;;21.77;11.63;;;;;;;10.57;100.00;100536.28;5035425;28;20443;-74
2023/04/30 00:24:30;;;;;;;15.70;11.48;;;;;;;10.64;100.00;100535.91;5052388;28;20430;-75
2023/04/30 00:26:58;;;;;;;17.67;11.10;;;;;;;10.59;100.00;100534.50;5053949;28;20043;-76
2023/04/30 00:29:23;;;;;;;17.15;10.95;;;;;;;10.64;100.00;100538.75;5053270;28;20497;-76
2023/04/30 00:31:54;;;;;;;15.10;9.88;;;;;;;10.69;100.00;100547.44;5051575;28;20037;-74
2023/04/30 00:34:20;;;;;;;16.58;10.80;;;;;;;10.64;100.00;100547.31;5052478;28;20122;-75
2023/04/30 00:36:48;;;;;;;17.20;11.25;;;;;;;10.67;100.00;100544.31;5051926;28;20481;-75
2023/04/30 00:39:14;;;;;;;15.88;10.90;;;;;;;10.66;100.00;100545.56;5052070;28;20036;-74
2023/04/30 00:41:40;;;;;;;14.57;11.10;;;;;;;10.68;100.00;100550.81;5050398;28;20025;-74
2023/04/30 00:44:14;;;;;;;14.80;10.75;;;;;;;10.62;100.00;100547.84;5051449;28;20013;-74
2023/04/30 00:46:41;;;;;;;14.38;10.57;;;;;;;10.53;100.00;100556.47;5052036;28;20025;-74
2023/04/30 00:49:15;;;;;;;15.63;10.57;;;;;;;10.51;100.00;100551.25;5053153;28;20029;-76
2023/04/30 00:51:41;;;;;;;14.52;10.43;;;;;;;10.50;100.00;100563.16;5052792;28;20097;-74
2023/04/30 00:54:08;;;;;;;16.00;11.20;;;;;;;10.41;100.00;100551.78;5052480;28;20040;-75
2023/04/30 00:56:42;;;;;;;15.10;10.38;;;;;;;10.47;100.00;100566.97;5051787;28;20104;-74
2023/04/30 00:59:08;;;;;;;16.88;10.80;;;;;;;10.39;100.00;100560.81;5052979;28;20024;-74
2023/04/30 01:01:34;;;;;;;16.95;11.45;;;;;;;10.40;100.00;100573.84;5035026;28;20196;-77
2023/04/30 01:04:00;;;;;;;15.20;11.45;;;;;;;10.34;100.00;100567.22;5051338;28;20553;-74
2023/04/30 01:06:35;;;;;;;14.55;9.95;;;;;;;10.38;100.00;100572.75;5052714;28;20033;-74
2023/04/30 01:09:00;;;;;;;14.32;11.23;;;;;;;10.40;100.00;100575.91;5053864;28;20029;-74
2023/04/30 01:11:54;;;;;;;17.17;10.93;;;;;;;10.41;100.00;100574.63;5053033;28;20083;-74
2023/04/30 01:14:28;;;;;;;17.48;10.25;;;;;;;10.45;100.00;100587.47;5052946;28;20013;-75
2023/04/30 01:17:20;;;;;;;14.23;10.30;;;;;;;10.44;100.00;100585.88;5052471;28;20021;-74
2023/04/30 01:19:46;;;;;;;17.48;11.82;;;;;;;10.35;100.00;100582.28;5052186;28;20025;-74
2023/04/30 01:22:42;;;;;;;18.20;11.48;;;;;;;10.31;100.00;100581.69;5054544;28;20028;-74
2023/04/30 01:25:44;;;;;;;18.67;12.82;;;;;;;10.31;100.00;100578.81;5055150;28;20025;-75
2023/04/30 01:28:18;;;;;;;16.88;11.45;;;;;;;10.36;100.00;100586.72;5020308;28;20118;-74
2023/04/30 01:30:59;;;;;;;16.35;11.48;;;;;;;10.27;100.00;100589.63;5051562;28;20021;-74
2023/04/30 01:33:27;;;;;;;19.50;12.32;;;;;;;10.22;100.00;100596.81;5035087;28;20111;-75
2023/04/30 01:36:09;;;;;;;18.48;11.07;;;;;;;10.14;100.00;100594.78;5059091;28;20033;-74
2023/04/30 01:39:06;;;;;;;17.15;10.20;;;;;;;10.15;100.00;100594.28;5059829;28;20054;-75
2023/04/30 01:41:50;;;;;;;15.30;10.75;;;;;;;10.23;100.00;100597.59;5057476;28;20036;-75
2023/04/30 01:44:43;;;;;;;15.15;10.35;;;;;;;10.18;100.00;100599.03;5056266;28;20059;-76
2023/04/30 01:47:30;;;;;;;15.45;10.57;;;;;;;10.15;100.00;100600.00;5056947;28;20055;-75
2023/04/30 01:50:14;;;;;;;15.38;10.48;;;;;;;10.08;100.00;100598.31;5056742;28;20025;-75
2023/04/30 01:52:52;;;;;;;17.80;10.40;;;;;;;10.06;100.00;100603.69;5056708;28;20035;-75
2023/04/30 01:55:21;;;;;;;15.45;10.93;;;;;;;10.04;100.00;100603.38;5056893;28;20347;-75
2023/04/30 01:57:57;;;;;;;17.23;10.13;;;;;;;9.99;100.00;100604.03;5039254;28;20036;-73
2023/04/30 02:00:22;;;;;;;18.92;9.88;;;;;;;9.91;100.00;100597.09;5055238;28;20058;-75
2023/04/30 02:02:56;;;;;;;16.38;10.30;;;;;;;9.87;100.00;100602.19;5038471;28;20064;-78
2023/04/30 02:05:22;;;;;;;15.63;11.23;;;;;;;9.77;100.00;100591.28;5057857;28;20035;-75
2023/04/30 02:07:56;;;;;;;13.50;9.63;;;;;;;9.70;100.00;100607.41;5058752;28;20104;-76
2023/04/30 02:10:25;;;;;;;14.07;10.30;;;;;;;9.63;100.00;100610.63;5056432;28;20032;-74
2023/04/30 02:12:51;;;;;;;15.10;10.25;;;;;;;9.56;100.00;100613.78;5054687;28;20044;-74
2023/04/30 02:15:16;;;;;;;19.30;10.90;;;;;;;9.41;100.00;100615.72;5054642;28;20025;-75
2023/04/30 02:17:44;;;;;;;18.50;10.40;;;;;;;9.39;100.00;100623.97;5055419;28;20095;-74
2023/04/30 02:20:12;;;;;;;19.88;10.35;;;;;;;9.33;100.00;100623.03;5058556;28;20032;-75
2023/04/30 02:22:38;;;;;;;18.27;11.65;;;;;;;9.27;100.00;100622.06;5057084;28;20063;-75
2023/04/30 02:25:05;;;;;;;17.63;11.98;;;;;;;9.20;100.00;100622.38;5058305;28;20450;-75
2023/04/30 02:27:39;;;;;;;18.88;11.15;;;;;;;9.06;100.00;100623.81;5056155;28;20045;-74
2023/04/30 02:30:06;;;;;;;16.52;10.75;;;;;;;8.94;100.00;100621.94;5055741;28;20025;-74
2023/04/30 02:32:33;;;;;;;16.88;11.18;;;;;;;8.83;100.00;100633.00;5055895;28;20040;-75
2023/04/30 02:35:01;;;;;;;21.38;11.88;;;;;;;8.75;100.00;100635.38;5055959;28;20399;-74
2023/04/30 02:37:26;;;;;;;17.15;12.10;;;;;;;8.69;100.00;100628.69;5055385;28;20025;-74
2023/04/30 02:39:53;;;;;;;19.45;11.80;;;;;;;8.61;100.00;100633.09;5055256;28;20037;-75
2023/04/30 02:42:19;;;;;;;14.75;11.13;;;;;;;8.52;100.00;100627.38;5054341;28;20063;-76
2023/04/30 02:44:47;;;;;;;21.80;13.10;;;;;;;8.48;100.00;100640.19;5054756;28;20103;-75
2023/04/30 02:47:12;;;;;;;17.27;11.15;;;;;;;8.34;100.00;100635.88;5056225;28;20056;-75
2023/04/30 02:49:39;;;;;;;18.10;11.43;;;;;;;8.23;100.00;100644.84;5055116;28;20182;-74
2023/04/30 02:52:08;;;;;;;19.77;12.18;;;;;;;8.13;100.00;100636.72;5055149;28;20060;-74
2023/04/30 02:54:36;;;;;;;19.65;11.70;;;;;;;8.10;100.00;100647.00;5055005;28;20092;-75
2023/04/30 02:57:04;;;;;;;15.82;12.68;;;;;;;8.00;100.00;100644.56;5053757;28;20060;-75
2023/04/30 02:59:30;;;;;;;20.17;11.45;;;;;;;7.94;100.00;100653.72;5054108;28;20029;-74
2023/04/30 03:01:56;;;;;;;18.67;12.10;;;;;;;7.89;100.00;100659.22;5055671;28;20111;-75
2023/04/30 03:04:23;;;;;;;15.63;11.82;;;;;;;7.83;100.00;100659.00;5054284;28;20090;-75
2023/04/30 03:06:49;;;;;;;21.05;12.68;;;;;;;7.76;100.00;100665.00;5053541;28;20029;-74
2023/04/30 03:09:15;;;;;;;20.90;12.38;;;;;;;7.68;100.00;100668.56;5054810;28;20029;-73
2023/04/30 03:11:43;;;;;;;18.63;12.07;;;;;;;7.62;100.00;100661.91;5054698;28;20028;-74
2023/04/30 03:14:09;;;;;;;22.10;13.85;;;;;;;7.57;100.00;100666.09;5055103;28;20021;-74
2023/04/30 03:16:37;;;;;;;20.02;13.55;;;;;;;7.53;100.00;100674.78;5053139;28;20044;-74
2023/04/30 03:19:02;;;;;;;20.92;12.45;;;;;;;7.49;100.00;100681.84;5053451;28;20029;-75
2023/04/30 03:21:28;;;;;;;20.27;12.75;;;;;;;7.43;100.00;100681.66;5054538;28;20036;-74
2023/04/30 03:23:54;;;;;;;21.73;14.68;;;;;;;7.36;100.00;100683.97;5053525;28;20040;-75
2023/04/30 03:26:20;;;;;;;21.00;13.95;;;;;;;7.31;100.00;100682.53;5054289;28;20029;-74
2023/04/30 03:28:46;;;;;;;19.75;13.40;;;;;;;7.24;100.00;100688.44;5054105;28;20033;-75
2023/04/30 03:31:13;;;;;;;23.83;14.45;;;;;;;7.28;100.00;100691.16;5054638;28;20101;-75
2023/04/30 03:33:41;;;;;;;21.33;12.82;;;;;;;7.29;100.00;100693.53;5054218;28;20028;-74
2023/04/30 03:36:07;;;;;;;19.92;13.20;;;;;;;7.31;100.00;100698.78;5054284;28;20029;-75
2023/04/30 03:38:32;;;;;;;19.98;12.25;;;;;;;7.26;100.00;100702.22;5053271;28;20116;-75
2023/04/30 03:40:59;;;;;;;23.15;13.15;;;;;;;7.32;100.00;100703.22;5054329;28;20367;-75
2023/04/30 03:43:25;;;;;;;26.98;13.68;;;;;;;7.29;100.00;100699.22;5035647;28;20079;-74
2023/04/30 03:45:52;;;;;;;24.95;12.95;;;;;;;7.35;100.00;100697.38;5054277;28;20082;-74
2023/04/30 03:48:18;;;;;;;22.33;12.02;;;;;;;7.37;100.00;100703.41;5052758;28;20063;-74
2023/04/30 03:50:52;;;;;;;18.15;12.88;;;;;;;7.38;100.00;100707.03;5054153;28;20069;-73
2023/04/30 03:53:18;;;;;;;21.40;12.77;;;;;;;7.40;100.00;100708.19;5053986;28;20174;-74
2023/04/30 03:55:44;;;;;;;19.20;12.48;;;;;;;7.35;100.00;100714.44;5053822;28;20056;-75
2023/04/30 03:58:12;;;;;;;19.38;12.23;;;;;;;7.41;100.00;100712.59;5035773;28;20083;-73
2023/04/30 04:00:40;;;;;;;20.88;13.15;;;;;;;7.42;100.00;100713.41;5049907;28;20045;-75
2023/04/30 04:03:06;;;;;;;19.85;12.45;;;;;;;7.42;100.00;100719.88;5035896;28;20037;-74
2023/04/30 04:05:32;;;;;;;17.02;11.65;;;;;;;7.32;100.00;100723.13;5052511;28;20039;-74
2023/04/30 04:07:58;;;;;;;19.35;12.10;;;;;;;7.36;100.00;100735.94;5053516;28;20120;-75
2023/04/30 04:10:26;;;;;;;19.73;12.55;;;;;;;7.45;100.00;100738.06;5052788;28;20462;-73
2023/04/30 04:12:52;;;;;;;18.52;12.10;;;;;;;7.46;100.00;100739.66;5054012;28;20029;-75
2023/04/30 04:15:19;;;;;;;18.88;12.00;;;;;;;7.53;100.00;100739.38;5052447;28;20029;-75
2023/04/30 04:17:45;;;;;;;21.15;11.38;;;;;;;7.57;100.00;100747.81;5053390;28;20171;-74
2023/04/30 04:20:12;;;;;;;17.50;11.73;;;;;;;7.56;100.00;100746.22;5053590;28;20029;-75
2023/04/30 04:22:38;;;;;;;20.30;12.73;;;;;;;7.59;100.00;100754.59;5053335;28;20025;-77
2023/04/30 04:25:04;;;;;;;17.50;11.57;;;;;;;7.57;100.00;100751.41;5053461;28;20104;-75
2023/04/30 04:27:29;;;;;;;19.13;10.27;;;;;;;7.71;100.00;100764.34;5053549;28;20059;-75
2023/04/30 04:29:56;;;;;;;17.42;10.50;;;;;;;7.83;100.00;100764.28;5053275;28;20084;-75
2023/04/30 04:32:24;;;;;;;20.38;9.70;;;;;;;7.87;100.00;100767.78;5049822;28;20032;-75
2023/04/30 04:34:53;;;;;;;15.38;10.02;;;;;;;7.83;100.00;100761.44;5053077;28;20035;-75
2023/04/30 04:37:19;;;;;;;13.45;10.05;;;;;;;7.67;100.00;100770.16;5053443;28;20054;-76
2023/04/30 04:39:45;;;;;;;15.18;10.02;;;;;;;7.75;100.00;100765.00;5053204;28;20045;-75
2023/04/30 04:42:11;;;;;;;13.23;9.10;;;;;;;7.93;100.00;100760.25;5052977;28;20116;-75
2023/04/30 04:44:37;;;;;;;16.27;10.23;;;;;;;8.03;100.00;100769.63;5035122;28;20035;-75
2023/04/30 04:47:04;;;;;;;15.18;9.32;;;;;;;8.11;100.00;100773.81;5052694;28;20035;-77
2023/04/30 04:49:30;;;;;;;13.32;9.50;;;;;;;8.15;100.00;100779.38;5053343;28;20067;-74
2023/04/30 04:51:55;;;;;;;15.90;9.50;;;;;;;8.26;100.00;100791.19;5054056;28;20025;-76
2023/04/30 04:54:21;;;;;;;13.30;8.73;;;;;;;8.15;100.00;100791.56;5053092;28;20387;-75
2023/04/30 04:56:47;;;;;;;11.75;8.27;;;;;;;8.22;100.00;100784.81;5051521;28;20029;-74
2023/04/30 04:59:12;;;;;;;15.93;9.48;;;;;;;8.28;100.00;100791.50;5052671;28;20486;-74
2023/04/30 05:01:40;;;;;;;14.13;7.38;;;;;;;8.30;100.00;100798.31;5051342;28;20123;-75
2023/04/30 05:04:06;;;;;;;13.73;10.20;;;;;;;8.31;100.00;100813.34;5051407;28;20474;-83
2023/04/30 05:06:41;;;;;;;16.63;8.40;;;;;;;8.38;100.00;100804.53;5053194;28;20033;-80
2023/04/30 05:09:08;;;;;;;9.77;7.00;;;;;;;8.31;100.00;100810.50;5051352;28;20108;-80
2023/04/30 05:11:35;;;;;;;12.45;7.68;;;;;;;8.33;100.00;100807.97;5052626;28;20040;-76
2023/04/30 05:14:02;;;;;;;13.38;7.40;;;;;;;8.47;100.00;100815.16;5051363;28;20033;-80
2023/04/30 05:16:29;;;;;;;11.35;6.80;;;;;;;8.67;100.00;100812.75;5052979;28;20056;-76
2023/04/30 05:18:56;;;;;;;12.95;7.72;;;;;;;8.80;100.00;100811.38;5052865;28;20036;-76
2023/04/30 05:21:22;;;;;;;13.27;7.25;;;;;;;8.78;100.00;100819.63;5052708;28;20025;-76
2023/04/30 05:23:47;;;;;;;9.32;6.47;;;;;;;8.85;100.00;100821.41;5051858;28;20506;-80
2023/04/30 05:26:13;;;;;;;9.43;6.75;;;;;;;8.98;100.00;100826.97;5051708;28;20025;-77
2023/04/30 05:28:40;;;;;;;10.15;6.88;;;;;;;8.95;100.00;100825.88;5052903;28;20489;-76
2023/04/30 05:31:07;;;;;;;10.43;6.38;;;;;;;9.00;100.00;100818.75;5052783;28;20044;-76
2023/04/30 05:33:35;;;;;;;13.48;6.68;;;;;;;9.20;100.00;100816.28;5051654;28;20052;-79
2023/04/30 05:36:02;;;;;;;10.52;6.82;;;;;;;9.45;100.00;100826.63;5051087;28;20401;-71
2023/04/30 05:38:27;;;;;;;13.82;6.95;;;;;;;9.70;100.00;100820.66;5051175;28;20509;-73
2023/04/30 05:40:54;;;;;;;14.60;7.63;;;;;;;9.80;100.00;100825.13;5052289;28;20029;-72
2023/04/30 05:43:21;;;;;;;10.80;6.68;;;;;;;9.95;100.00;100825.28;5034139;28;20551;-74
2023/04/30 05:45:46;;;;;;;10.38;6.65;;;;;;;10.07;100.00;100816.56;5050922;28;20025;-72
2023/04/30 05:48:13;;;;;;;10.30;6.72;;;;;;;10.05;100.00;100812.59;5034375;28;20028;-73
2023/04/30 05:50:38;;;;;;;13.52;6.85;;;;;;;10.18;100.00;100827.50;5034299;28;20485;-72
2023/04/30 05:53:05;;;;;;;9.20;6.43;;;;;;;10.24;100.00;100827.63;5050433;28;20021;-72
2023/04/30 05:55:30;;;;;;;15.68;6.30;;;;;;;10.34;100.00;100834.91;5051303;28;20025;-73
2023/04/30 05:57:57;;;;;;;9.57;6.35;;;;;;;10.15;100.00;100787.66;5050935;28;20482;-73
2023/04/30 06:00:23;;;;;;;11.27;6.72;;;;;;;10.34;100.00;100809.22;5050767;28;20044;-73
2023/04/30 06:02:50;;;;;;;9.40;6.03;;;;;;;10.67;100.00;100849.31;5034605;28;20029;-73
2023/04/30 06:05:16;;;;;;;15.63;6.70;;;;;;;10.78;100.00;100846.72;5052249;28;20035;-74
2023/04/30 06:07:42;;;;;;;10.15;6.43;;;;;;;10.77;100.00;100863.13;5051207;28;20044;-72
2023/04/30 06:10:11;;;;;;;15.75;6.68;;;;;;;10.90;100.00;100860.03;5051137;28;20044;-74
2023/04/30 06:12:38;;;;;;;9.27;6.32;;;;;;;10.75;100.00;100864.84;5052682;28;20053;-72
2023/04/30 06:15:04;;;;;;;13.38;6.93;;;;;;;10.79;100.00;100866.25;5034316;28;20359;-72
2023/04/30 06:17:31;;;;;;;10.77;5.78;;;;;;;10.77;100.00;100874.53;5033870;28;20045;-73
2023/04/30 06:20:01;;;;;;;8.15;5.93;;;;;;;10.83;100.00;100855.44;5052250;28;20025;-72
2023/04/30 06:22:28;;;;;;;9.10;6.40;;;;;;;10.91;100.00;100868.16;5054400;28;20074;-71
2023/04/30 06:24:56;;;;;;;13.23;7.18;;;;;;;11.04;100.00;100870.00;5055025;28;20033;-70
2023/04/30 06:27:22;;;;;;;12.45;5.95;;;;;;;11.37;100.00;100868.75;5055717;28;20029;-70
2023/04/30 06:29:47;;;;;;;9.65;5.55;;;;;;;13.27;100.00;100858.16;5055659;28;20028;-73
2023/04/30 06:32:14;;;;;;;11.02;4.90;;;;;;;16.28;100.00;100859.75;5055714;28;20025;-73
2023/04/30 06:34:40;;;;;;;7.78;4.75;;;;;;;19.21;79.82;100873.28;5055264;28;20107;-71
2023/04/30 06:37:05;;;;;;;6.40;4.65;;;;;;;21.62;60.83;100884.09;5055236;28;20504;-72
2023/04/30 06:39:31;;;;;;;10.52;5.40;;;;;;;22.82;44.13;100892.19;5053929;28;20045;-71
2023/04/30 06:41:57;;;;;;;7.25;3.95;;;;;;;24.16;45.41;100893.25;5054098;28;20029;-73
2023/04/30 06:44:25;;;;;;;6.43;4.47;;;;;;;25.80;38.30;100889.06;5053872;28;20036;-74
2023/04/30 06:46:52;;;;;;;7.35;3.80;;;;;;;27.30;36.27;100882.47;5055274;28;20028;-73
2023/04/30 06:49:17;;;;;;;7.30;4.80;;;;;;;28.83;33.55;100882.53;5055307;28;20029;-73
2023/04/30 06:51:44;;;;;;;6.90;4.57;;;;;;;29.86;29.32;100881.34;5054882;28;20516;-74
2023/04/30 06:54:10;;;;;;;7.28;4.63;;;;;;;30.53;29.36;100872.56;5053302;28;20041;-74
2023/04/30 06:56:37;;;;;;;5.53;4.57;;;;;;;31.73;28.90;100864.53;5054876;28;20036;-72
2023/04/30 06:59:04;;;;;;;4.78;4.10;;;;;;;32.86;25.84;100871.59;5053667;28;20518;-74
2023/04/30 07:01:30;;;;;;;5.18;4.30;;;;;;;33.01;24.81;100862.25;5036068;28;20032;-74
2023/04/30 07:03:56;;;;;;;6.50;4.10;;;;;;;32.84;24.63;100853.69;5054372;28;20036;-73
2023/04/30 07:06:36;;;;;;;4.82;4.10;;;;;;;33.10;24.24;100855.44;5053905;28;20021;-73
2023/04/30 07:09:03;;;;;;;6.57;4.88;;;;;;;33.44;23.86;100857.69;5053796;28;20021;-73
2023/04/30 07:11:29;;;;;;;5.30;4.57;;;;;;;34.38;23.95;100873.19;5050945;28;20036;-72
2023/04/30 07:13:55;;;;;;;6.43;4.30;;;;;;;35.34;22.31;100867.69;5052462;28;20037;-71
2023/04/30 07:16:21;;;;;;;7.18;4.57;;;;;;;35.46;20.66;100863.19;5053892;28;20029;-73
2023/04/30 07:18:52;;;;;;;8.10;4.25;;;;;;;36.15;21.16;100855.06;5052588;28;20527;-75
2023/04/30 07:21:19;;;;;;;7.82;3.92;;;;;;;36.62;21.42;100852.34;5053736;28;20029;-72
2023/04/30 07:23:44;;;;;;;10.32;4.38;;;;;;;37.60;20.55;100843.75;5052143;28;20178;-75
2023/04/30 07:26:10;;;;;;;4.60;4.10;;;;;;;38.12;19.06;100847.59;5054179;28;20108;-74
2023/04/30 07:28:35;;;;;;;7.18;3.70;;;;;;;36.98;18.66;100843.72;5053699;28;20036;-73
2023/04/30 07:31:01;;;;;;;5.15;3.35;;;;;;;34.85;20.13;100841.13;5054518;28;20068;-72
2023/04/30 07:33:27;;;;;;;8.85;3.80;;;;;;;33.71;19.65;100851.25;5049324;28;20033;-73
2023/04/30 07:35:55;;;;;;;8.27;3.95;;;;;;;34.33;21.23;100857.34;5053749;28;20021;-73
2023/04/30 07:38:20;;;;;;;5.45;3.45;;;;;;;35.88;19.75;100846.94;5053964;28;20025;-74
2023/04/30 07:40:46;;;;;;;8.77;4.25;;;;;;;37.12;18.92;100850.38;5054361;28;20024;-73
2023/04/30 07:43:11;;;;;;;4.25;3.80;;;;;;;35.38;18.35;100844.91;5053972;28;20029;-73
2023/04/30 07:45:37;;;;;;;7.50;4.45;;;;;;;34.13;20.16;100844.25;5053815;28;20025;-75
2023/04/30 07:48:08;;;;;;;8.45;3.90;;;;;;;34.59;19.49;100861.13;5054015;28;20370;-73
2023/04/30 07:50:34;;;;;;;5.57;3.45;;;;;;;34.56;20.04;100850.53;5053856;28;20036;-73
2023/04/30 07:53:01;;;;;;;6.53;3.47;;;;;;;35.58;19.40;100851.22;5053468;28;20037;-72
2023/04/30 07:55:26;;;;;;;4.97;3.85;;;;;;;35.71;19.03;100865.34;5053496;28;20075;-74
2023/04/30 07:58:04;;;;;;;6.00;3.75;;;;;;;35.39;19.58;100873.22;5053012;28;20052;-73
2023/04/30 08:00:32;;;;;;;7.47;3.40;;;;;;;36.11;18.79;100863.03;5052704;28;20064;-73
2023/04/30 08:02:59;;;;;;;6.05;3.53;;;;;;;35.91;18.73;100857.50;5051824;28;20037;-71
2023/04/30 08:05:27;;;;;;;6.50;3.10;;;;;;;36.09;18.65;100866.66;5053000;28;20104;-73
2023/04/30 08:07:52;;;;;;;4.53;3.38;;;;;;;34.82;19.13;100860.25;5053358;28;20032;-73
2023/04/30 08:10:33;;;;;;;5.82;3.25;;;;;;;32.95;19.68;100864.78;5053091;28;20021;-73
2023/04/30 08:12:58;;;;;;;6.32;3.78;;;;;;;31.07;20.86;100866.28;5053527;28;20033;-72
2023/04/30 08:15:25;;;;;;;5.72;3.28;;;;;;;30.85;21.32;100866.22;5053084;28;20033;-73
2023/04/30 08:17:51;;;;;;;6.20;3.08;;;;;;;31.59;22.00;100864.25;5053360;28;20056;-73
2023/04/30 08:20:16;;;;;;;4.28;3.20;;;;;;;32.73;21.06;100872.22;5052321;28;20063;-73
2023/04/30 08:22:44;;;;;;;6.82;3.25;;;;;;;33.46;20.86;100872.66;5053539;28;20033;-74
2023/04/30 08:25:11;;;;;;;5.30;3.58;;;;;;;34.34;19.83;100872.97;5051874;28;20041;-71
2023/04/30 08:27:38;;;;;;;7.53;3.60;;;;;;;33.90;19.73;100873.94;5035811;28;20035;-73
2023/04/30 08:30:06;;;;;;;5.90;3.13;;;;;;;34.02;19.67;100862.81;5051926;28;20111;-71
2023/04/30 08:32:35;;;;;;;6.45;3.60;;;;;;;34.52;19.77;100870.28;5052422;28;20028;-72
2023/04/30 08:35:05;;;;;;;5.60;2.70;;;;;;;34.86;19.08;100862.69;5052082;28;20048;-73
2023/04/30 08:37:30;;;;;;;5.22;2.67;;;;;;;34.65;18.82;100867.44;5051880;28;20596;-74
2023/04/30 08:39:57;;;;;;;6.72;3.10;;;;;;;34.38;18.42;100870.22;5053412;28;20059;-73
2023/04/30 08:42:40;;;;;;;5.78;3.63;;;;;;;32.87;18.63;100861.31;5034938;28;20051;-73
2023/04/30 08:45:08;;;;;;;6.63;3.65;;;;;;;31.24;21.06;100863.16;5052386;28;20047;-73
2023/04/30 08:47:34;;;;;;;5.05;3.10;;;;;;;31.53;21.39;100872.69;5051953;28;20043;-74
2023/04/30 08:50:14;;;;;;;6.40;2.78;;;;;;;31.13;20.66;100867.53;5052958;28;20029;-75
2023/04/30 08:52:41;;;;;;;8.40;3.22;;;;;;;29.70;22.13;100881.59;5052779;28;20116;-75
2023/04/30 08:55:07;;;;;;;11.10;3.25;;;;;;;28.45;22.89;100871.97;5034580;28;20498;-73
2023/04/30 08:57:35;;;;;;;3.97;2.72;;;;;;;27.71;23.67;100880.97;5053064;28;20058;-77
2023/04/30 09:00:01;;;;;;;6.22;3.28;;;;;;;26.97;24.12;100872.09;5035324;28;20033;-78
2023/04/30 09:02:27;;;;;;;7.75;2.85;;;;;;;26.43;25.51;100879.56;5053010;28;20108;-76
2023/04/30 09:04:55;;;;;;;11.43;2.85;;;;;;;27.34;25.27;100888.72;5050940;28;20041;-76
2023/04/30 09:07:35;;;;;;;6.40;2.28;;;;;;;28.79;23.93;100885.09;5052609;28;20447;-76
2023/04/30 09:10:14;;;;;;;4.20;2.58;;;;;;;29.71;22.71;100892.00;5051609;28;20029;-76
2023/04/30 09:12:44;;;;;;;5.82;2.60;;;;;;;29.35;21.82;100883.16;5052731;28;20109;-80
2023/04/30 09:15:11;;;;;;;4.53;2.30;;;;;;;29.44;22.98;100885.34;5052884;28;20088;-77
2023/04/30 09:17:38;;;;;;;5.68;4.32;;;;;;;29.62;22.48;100883.13;5034761;28;20095;-79
2023/04/30 09:20:12;;;;;;;6.13;3.22;;;;;;;29.44;22.86;100896.34;5051737;28;20112;-80
2023/04/30 09:22:40;;;;;;;8.90;5.63;;;;;;;28.34;22.78;100887.19;5052560;28;20041;-75
2023/04/30 09:25:10;;;;;;;11.25;5.47;;;;;;;27.89;25.47;100896.53;5051715;28;20041;-86
2023/04/30 09:27:36;;;;;;;5.78;3.08;;;;;;;28.45;24.47;100900.63;5051452;28;20115;-77
2023/04/30 09:30:07;;;;;;;80.80;45.85;;;;;;;28.96;24.37;100904.91;5052442;28;20075;-76
2023/04/30 09:32:33;;;;;;;3.45;2.33;;;;;;;28.22;21.97;100905.97;5052417;28;20044;-75
2023/04/30 09:34:59;;;;;;;5.95;2.15;;;;;;;26.69;23.09;100896.69;5052709;28;20119;-78
2023/04/30 09:37:38;;;;;;;2.85;1.90;;;;;;;26.44;22.75;100896.59;5051085;28;20382;-77
2023/04/30 09:40:05;;;;;;;3.92;1.95;;;;;;;26.07;23.05;100895.31;5051410;28;20354;-78
2023/04/30 09:42:31;;;;;;;5.55;1.88;;;;;;;25.39;24.54;100899.00;5052638;28;20584;-78
2023/04/30 09:44:58;;;;;;;3.30;2.25;;;;;;;24.85;25.93;100902.34;5051046;28;20048;-79
2023/04/30 09:47:28;;;;;;;3.92;2.50;;;;;;;24.34;26.98;100888.53;5051079;28;20466;-78
2023/04/30 09:49:55;;;;;;;4.68;2.20;;;;;;;23.50;27.02;100881.28;5051260;28;20028;-76
2023/04/30 09:52:21;;;;;;;4.85;1.80;;;;;;;23.00;27.67;100891.28;5051057;28;20429;-77
2023/04/30 09:54:47;;;;;;;3.42;1.75;;;;;;;22.66;26.79;100890.47;5051866;28;20064;-79
2023/04/30 09:57:15;;;;;;;5.63;2.15;;;;;;;22.13;28.17;100901.34;5056651;28;20052;-78
2023/04/30 09:59:46;;;;;;;3.72;2.38;;;;;;;22.16;28.81;100892.31;5043197;28;20037;-80
2023/04/30 10:02:13;;;;;;;7.45;2.40;;;;;;;22.17;29.90;100901.84;5046661;28;20040;-78
2023/04/30 10:04:44;;;;;;;6.60;1.98;;;;;;;22.06;30.29;100903.63;5058792;28;20490;-80
2023/04/30 10:07:17;;;;;;;3.03;2.08;;;;;;;21.67;29.17;100909.41;5059378;28;20042;-79
2023/04/30 10:09:54;;;;;;;6.20;2.33;;;;;;;21.10;29.98;100913.78;5057979;28;20072;-78
2023/04/30 10:12:43;;;;;;;4.10;2.22;;;;;;;20.67;30.32;100897.22;5054648;28;20497;-77
2023/04/30 10:15:13;;;;;;;5.45;2.75;;;;;;;20.33;32.01;100890.31;5052984;28;20068;-77
2023/04/30 10:17:49;;;;;;;6.50;2.55;;;;;;;19.97;32.31;100898.38;5056496;28;20446;-77
2023/04/30 10:20:16;;;;;;;5.20;2.40;;;;;;;19.81;33.18;100902.22;5056004;28;20035;-77
2023/04/30 10:22:56;;;;;;;5.68;2.72;;;;;;;19.49;35.94;100890.41;5038669;28;20032;-78
2023/04/30 10:25:25;;;;;;;6.30;2.20;;;;;;;19.39;35.04;100900.78;5055072;28;20044;-77
2023/04/30 10:27:53;;;;;;;3.92;2.13;;;;;;;18.88;34.84;100903.25;5038684;28;20430;-79
2023/04/30 10:30:21;;;;;;;5.88;2.25;;;;;;;18.89;34.35;100915.63;5038126;28;20115;-78
2023/04/30 10:33:26;;;;;;;4.43;2.38;;;;;;;18.99;34.87;100908.19;5055550;28;20021;-79
2023/04/30 10:35:59;;;;;;;5.20;2.15;;;;;;;18.99;35.72;100913.97;5033428;28;20048;-77
2023/04/30 10:38:37;;;;;;;4.32;2.50;;;;;;;18.30;35.58;100914.09;5054764;28;20021;-77
2023/04/30 10:41:05;;;;;;;7.20;2.10;;;;;;;17.98;35.21;100915.78;5054525;28;20029;-77
2023/04/30 10:43:34;;;;;;;7.03;2.13;;;;;;;17.86;36.63;100905.56;5054187;28;20040;-76
2023/04/30 10:46:01;;;;;;;3.90;2.65;;;;;;;18.08;37.23;100914.19;5054096;28;20025;-76
2023/04/30 10:48:30;;;;;;;8.68;2.35;;;;;;;18.12;37.86;100900.22;5054112;28;20111;-80
2023/04/30 10:50:57;;;;;;;11.48;2.30;;;;;;;18.00;37.87;100921.81;5037217;28;20025;-80
2023/04/30 10:53:25;;;;;;;5.60;2.22;;;;;;;17.95;38.24;100914.72;5053699;28;20033;-79
2023/04/30 10:56:05;;;;;;;6.68;2.60;;;;;;;17.82;38.08;100921.09;5053695;28;20107;-76
2023/04/30 10:58:34;;;;;;;3.97;1.90;;;;;;;17.51;39.39;100903.25;5049659;28;20025;-77
2023/04/30 11:01:10;;;;;;;3.92;1.83;;;;;;;17.63;39.19;100910.59;5052879;28;20033;-77
2023/04/30 11:03:42;;;;;;;4.20;2.28;;;;;;;17.56;37.86;100908.25;5053037;28;20078;-78
2023/04/30 11:06:25;;;;;;;7.55;2.05;;;;;;;17.38;37.49;100913.22;5035556;28;20029;-78
2023/04/30 11:09:03;;;;;;;8.35;2.50;;;;;;;16.92;37.34;100924.47;5052972;28;20021;-76
2023/04/30 11:11:33;;;;;;;4.72;1.98;;;;;;;16.73;38.25;100906.06;5053594;28;20029;-77
2023/04/30 11:14:05;;;;;;;4.45;2.00;;;;;;;16.92;38.59;100907.94;5052723;28;20041;-76
2023/04/30 11:16:34;;;;;;;6.43;1.90;;;;;;;16.78;37.10;100911.88;5052143;28;20448;-77
2023/04/30 11:19:09;;;;;;;4.13;1.98;;;;;;;16.47;35.68;100909.13;5034872;28;20028;-77
2023/04/30 11:21:40;;;;;;;2.88;1.80;;;;;;;16.41;36.16;100908.31;5053444;28;20025;-77